Time;durP1;ratioP1;P1;durP2;ratioP2;P2;SDS_P1;SDS_P2;PMS_P1;PMS_P2;Temp;Humidity;BMP_temperature;BMP_pressure;BME280_temperature;BME280_humidity;BME280_pressure;Samples;Min_cycle;Max_cycle;Signal;HPM_P1;HPM_P2
2020/12/03 00:00:39;;;;;;;29.25;11.20;;;0.70;69.30;;;;;;4986526;28;20073;-91
2020/12/03 00:03:16;;;;;;;28.30;12.40;;;0.70;69.40;;;;;;4987262;28;20053;-92
2020/12/03 00:05:44;;;;;;;29.45;11.50;;;0.70;69.20;;;;;;4991882;28;20030;-92
2020/12/03 00:08:11;;;;;;;30.52;12.13;;;0.80;69.50;;;;;;4993943;28;20022;-89
2020/12/03 00:10:38;;;;;;;31.55;13.27;;;0.80;69.40;;;;;;4993644;28;20083;-88
2020/12/03 00:13:23;;;;;;;22.35;9.45;;;0.70;69.10;;;;;;4993740;28;20014;-88
2020/12/03 00:15:56;;;;;;;25.50;10.65;;;0.60;68.80;;;;;;4996041;28;20034;-88
2020/12/03 00:18:23;;;;;;;26.38;10.35;;;0.60;69.10;;;;;;4996438;28;20053;-88
2020/12/03 00:20:49;;;;;;;15.32;6.10;;;0.60;69.40;;;;;;4997639;28;20033;-89
2020/12/03 00:23:14;;;;;;;29.08;10.43;;;0.70;69.40;;;;;;4996383;28;20034;-89
2020/12/03 00:25:40;;;;;;;28.20;11.35;;;0.60;69.10;;;;;;4997361;28;20072;-88
2020/12/03 00:28:06;;;;;;;15.07;5.80;;;0.60;69.00;;;;;;4986414;28;20121;-88
2020/12/03 00:30:32;;;;;;;22.65;9.10;;;0.60;69.20;;;;;;4997423;28;20129;-88
2020/12/03 00:32:57;;;;;;;15.52;8.13;;;0.50;69.10;;;;;;4997522;28;20532;-88
2020/12/03 00:35:24;;;;;;;24.55;10.60;;;0.50;69.10;;;;;;4989505;28;20092;-88
2020/12/03 00:37:50;;;;;;;22.42;9.65;;;0.50;69.40;;;;;;4997715;28;20018;-88
2020/12/03 00:40:17;;;;;;;24.02;10.00;;;0.60;69.70;;;;;;4990240;28;20104;-90
2020/12/03 00:42:43;;;;;;;25.73;10.25;;;0.60;69.70;;;;;;4978168;28;20100;-88
2020/12/03 00:45:10;;;;;;;23.38;9.90;;;0.60;69.70;;;;;;4978079;28;20062;-88
2020/12/03 00:47:38;;;;;;;31.13;11.45;;;0.70;69.70;;;;;;4982009;28;20053;-91
2020/12/03 00:50:05;;;;;;;24.23;9.55;;;0.70;69.60;;;;;;4997580;28;20072;-91
2020/12/03 00:52:31;;;;;;;28.38;10.55;;;0.80;69.70;;;;;;4994986;28;20039;-90
2020/12/03 00:54:56;;;;;;;26.67;10.68;;;0.80;69.40;;;;;;4977996;28;20033;-90
2020/12/03 00:57:22;;;;;;;23.25;10.60;;;0.70;69.30;;;;;;4996742;28;20041;-89
2020/12/03 00:59:47;;;;;;;26.27;10.95;;;0.70;69.40;;;;;;4981435;28;20026;-89
2020/12/03 01:02:14;;;;;;;25.77;10.27;;;0.70;69.80;;;;;;4998764;28;20026;-90
2020/12/03 01:04:40;;;;;;;26.67;10.88;;;0.80;69.70;;;;;;4995881;28;20023;-89
2020/12/03 01:07:06;;;;;;;26.17;11.45;;;0.80;69.50;;;;;;4995265;28;20461;-87
2020/12/03 01:09:34;;;;;;;24.73;10.60;;;0.80;69.50;;;;;;4983537;28;20113;-90
2020/12/03 01:11:59;;;;;;;24.85;11.02;;;0.80;69.40;;;;;;4978121;28;20149;-89
2020/12/03 01:14:25;;;;;;;27.38;11.30;;;0.80;69.50;;;;;;4970013;28;20530;-90
2020/12/03 01:16:51;;;;;;;21.08;9.20;;;0.80;69.50;;;;;;4961684;28;20641;-90
2020/12/03 01:19:16;;;;;;;26.98;8.82;;;0.80;69.50;;;;;;4997052;28;20109;-90
2020/12/03 01:21:42;;;;;;;28.75;11.40;;;0.70;69.20;;;;;;4993120;28;20026;-90
2020/12/03 01:24:07;;;;;;;28.23;11.65;;;0.80;69.60;;;;;;4996789;28;20033;-90
2020/12/03 01:26:33;;;;;;;27.27;11.85;;;0.80;69.60;;;;;;4960989;28;20033;-89
2020/12/03 01:28:59;;;;;;;25.58;11.30;;;0.80;69.60;;;;;;4976472;28;20068;-90
2020/12/03 01:31:25;;;;;;;26.17;10.38;;;0.80;69.60;;;;;;4961539;28;20066;-90
2020/12/03 01:33:50;;;;;;;28.70;11.57;;;0.80;69.30;;;;;;4991062;28;20023;-90
2020/12/03 01:36:16;;;;;;;22.77;9.88;;;0.80;69.40;;;;;;4994004;28;20034;-90
2020/12/03 01:38:42;;;;;;;25.58;9.35;;;0.80;69.40;;;;;;4978939;28;20031;-91
2020/12/03 01:41:08;;;;;;;26.20;10.35;;;0.80;69.50;;;;;;4993692;28;20049;-90
2020/12/03 01:43:39;;;;;;;28.10;10.23;;;0.80;69.80;;;;;;4995995;28;20684;-89
2020/12/03 01:46:04;;;;;;;31.20;12.85;;;0.80;69.70;;;;;;4994063;28;20030;-89
2020/12/03 01:49:01;;;;;;;28.95;11.05;;;0.90;69.60;;;;;;4949072;28;20399;-90
2020/12/03 01:51:35;;;;;;;26.25;11.07;;;0.90;69.70;;;;;;4964733;28;20031;-89
2020/12/03 01:54:06;;;;;;;29.13;10.90;;;0.90;69.70;;;;;;4967142;28;20093;-89
2020/12/03 01:56:37;;;;;;;29.15;11.77;;;0.90;69.60;;;;;;4994106;28;20487;-89
2020/12/03 01:59:05;;;;;;;28.20;10.93;;;0.90;69.60;;;;;;4975809;28;20020;-89
2020/12/03 02:01:31;;;;;;;34.30;12.57;;;0.90;69.50;;;;;;4959402;28;20049;-89
2020/12/03 02:03:58;;;;;;;30.00;12.77;;;0.90;69.50;;;;;;4974422;28;20161;-89
2020/12/03 02:06:30;;;;;;;35.45;13.10;;;0.90;69.20;;;;;;4967145;28;20034;-91
2020/12/03 02:08:55;;;;;;;34.97;13.68;;;0.80;69.30;;;;;;4958292;28;20399;-91
2020/12/03 02:11:22;;;;;;;26.17;11.13;;;0.80;69.30;;;;;;4946347;28;20030;-90
2020/12/03 02:14:00;;;;;;;29.75;12.05;;;0.80;69.70;;;;;;4976415;28;20101;-91
2020/12/03 02:16:33;;;;;;;28.85;12.20;;;0.80;69.40;;;;;;4977283;28;20130;-91
2020/12/03 02:18:58;;;;;;;29.30;11.52;;;0.90;69.70;;;;;;4978093;28;20036;-91
2020/12/03 02:21:24;;;;;;;27.77;12.27;;;0.90;69.70;;;;;;4994690;28;20105;-91
2020/12/03 02:23:50;;;;;;;25.85;10.73;;;0.90;69.70;;;;;;4970683;28;20037;-91
2020/12/03 02:26:17;;;;;;;25.50;11.02;;;0.90;69.40;;;;;;4953594;28;20026;-91
2020/12/03 02:28:43;;;;;;;28.60;12.13;;;0.90;69.60;;;;;;4981243;28;20046;-91
2020/12/03 02:31:10;;;;;;;33.65;13.68;;;0.90;69.70;;;;;;4972091;28;20054;-88
2020/12/03 02:33:36;;;;;;;27.00;11.20;;;0.90;69.70;;;;;;4957526;28;20050;-89
2020/12/03 02:36:02;;;;;;;33.30;12.48;;;0.90;69.50;;;;;;4940120;28;20487;-89
2020/12/03 02:38:29;;;;;;;31.67;12.35;;;0.90;69.60;;;;;;4948093;28;20034;-90
2020/12/03 02:40:59;;;;;;;27.42;12.30;;;0.90;69.50;;;;;;4956747;28;20077;-91
2020/12/03 02:43:26;;;;;;;24.75;11.65;;;0.90;69.50;;;;;;4956979;28;20026;-90
2020/12/03 02:45:51;;;;;;;27.30;11.48;;;0.90;69.50;;;;;;4962109;28;20605;-90
2020/12/03 02:48:17;;;;;;;32.05;12.93;;;0.90;69.40;;;;;;4987304;28;20132;-92
2020/12/03 02:50:43;;;;;;;35.15;13.18;;;0.90;69.40;;;;;;4994473;28;20030;-90
2020/12/03 02:53:09;;;;;;;35.35;14.25;;;0.90;69.60;;;;;;4977930;28;20030;-90
2020/12/03 02:55:34;;;;;;;31.80;14.85;;;0.90;69.70;;;;;;4995978;28;20026;-90
2020/12/03 02:58:00;;;;;;;35.75;14.25;;;0.90;69.40;;;;;;4984705;28;20125;-90
2020/12/03 03:00:25;;;;;;;30.92;12.60;;;0.90;69.50;;;;;;4988321;28;20116;-89
2020/12/03 03:02:52;;;;;;;29.52;12.23;;;0.80;69.50;;;;;;4980062;28;20509;-90
2020/12/03 03:05:17;;;;;;;27.38;11.63;;;0.90;69.70;;;;;;4968090;28;20018;-90
2020/12/03 03:07:43;;;;;;;31.80;13.73;;;0.90;69.40;;;;;;4987054;28;20037;-90
2020/12/03 03:10:09;;;;;;;26.85;11.90;;;0.80;69.30;;;;;;4979638;28;20061;-90
2020/12/03 03:12:35;;;;;;;32.65;13.20;;;0.80;69.20;;;;;;4995850;28;20075;-90
2020/12/03 03:15:00;;;;;;;30.92;13.93;;;0.70;69.40;;;;;;4982459;28;20030;-90
2020/12/03 03:17:27;;;;;;;30.63;12.57;;;0.70;69.40;;;;;;4959959;28;20121;-90
2020/12/03 03:19:53;;;;;;;35.83;14.38;;;0.70;69.20;;;;;;4960214;28;20061;-90
2020/12/03 03:22:18;;;;;;;30.98;12.90;;;0.70;69.30;;;;;;4973600;28;20065;-91
2020/12/03 03:24:44;;;;;;;31.23;12.77;;;0.60;69.90;;;;;;4964220;28;20026;-91
2020/12/03 03:27:09;;;;;;;31.77;12.40;;;0.60;69.40;;;;;;4992769;28;20509;-91
2020/12/03 03:29:35;;;;;;;34.63;12.18;;;0.60;69.40;;;;;;4979311;28;20033;-90
2020/12/03 03:32:01;;;;;;;28.58;11.68;;;0.60;69.70;;;;;;4995834;28;20041;-91
2020/12/03 03:34:26;;;;;;;33.58;12.57;;;0.70;69.80;;;;;;4980237;28;20117;-92
2020/12/03 03:36:52;;;;;;;28.10;13.55;;;0.70;69.90;;;;;;4991669;28;20030;-89
2020/12/03 03:39:20;;;;;;;37.95;14.60;;;0.70;69.70;;;;;;4995020;28;20261;-88
2020/12/03 03:41:46;;;;;;;33.38;13.95;;;0.70;69.50;;;;;;4993964;28;20565;-88
2020/12/03 03:44:12;;;;;;;35.03;14.23;;;0.70;69.40;;;;;;4994322;28;20156;-88
2020/12/03 03:46:38;;;;;;;25.58;10.40;;;0.60;69.30;;;;;;4994712;28;20068;-88
2020/12/03 03:49:04;;;;;;;32.05;11.45;;;0.60;69.50;;;;;;4991294;28;20132;-88
2020/12/03 03:51:30;;;;;;;31.90;12.73;;;0.60;69.60;;;;;;4980765;28;20482;-88
2020/12/03 03:53:55;;;;;;;29.83;12.35;;;0.70;69.90;;;;;;4962905;28;20417;-89
2020/12/03 03:56:21;;;;;;;35.08;12.60;;;0.70;69.90;;;;;;4979771;28;20129;-89
2020/12/03 03:58:47;;;;;;;32.38;13.68;;;0.70;69.80;;;;;;4998431;28;20030;-90
2020/12/03 04:01:12;;;;;;;30.60;12.73;;;0.70;69.60;;;;;;4996532;28;20492;-90
2020/12/03 04:03:38;;;;;;;34.10;13.55;;;0.70;69.80;;;;;;4986332;28;20026;-91
2020/12/03 04:06:04;;;;;;;30.33;12.15;;;0.70;69.80;;;;;;4975436;28;20449;-90
2020/12/03 04:08:29;;;;;;;32.55;12.25;;;0.80;69.90;;;;;;4979971;28;20062;-90
2020/12/03 04:10:55;;;;;;;36.60;14.50;;;0.80;70.00;;;;;;4966500;28;20045;-91
2020/12/03 04:13:24;;;;;;;36.65;12.93;;;0.80;69.90;;;;;;4995995;28;20031;-92
2020/12/03 04:15:50;;;;;;;31.80;11.65;;;0.80;69.90;;;;;;4998027;28;20022;-90
2020/12/03 04:18:16;;;;;;;32.28;12.80;;;0.80;69.70;;;;;;4996690;28;20033;-91
2020/12/03 04:20:43;;;;;;;28.17;11.43;;;0.80;69.80;;;;;;4998403;28;20036;-91
2020/12/03 04:23:09;;;;;;;33.47;12.50;;;0.80;69.70;;;;;;4981418;28;20022;-88
2020/12/03 04:25:34;;;;;;;35.15;14.23;;;0.80;69.80;;;;;;4997213;28;20025;-89
2020/12/03 04:28:00;;;;;;;36.40;13.27;;;0.80;69.80;;;;;;4993005;28;20087;-89
2020/12/03 04:30:25;;;;;;;35.47;14.25;;;0.80;69.80;;;;;;4985613;28;20038;-89
2020/12/03 04:32:51;;;;;;;31.00;12.10;;;0.80;69.70;;;;;;4979111;28;20026;-89
2020/12/03 04:35:17;;;;;;;33.55;11.77;;;0.80;69.60;;;;;;4964318;28;20049;-89
2020/12/03 04:37:44;;;;;;;35.38;13.60;;;0.80;69.80;;;;;;4978510;28;20471;-89
2020/12/03 04:40:24;;;;;;;33.53;12.50;;;0.70;69.70;;;;;;4981144;28;20467;-89
2020/12/03 04:42:51;;;;;;;34.03;12.88;;;0.80;69.80;;;;;;4996480;28;20030;-88
2020/12/03 04:45:27;;;;;;;37.08;14.55;;;0.70;69.70;;;;;;4983237;28;20034;-88
2020/12/03 04:48:17;;;;;;;28.85;11.05;;;0.70;69.60;;;;;;4993354;28;20073;-90
2020/12/03 04:51:05;;;;;;;23.40;9.50;;;0.70;69.80;;;;;;4995176;28;20037;-90
2020/12/03 04:53:56;;;;;;;30.85;12.05;;;0.70;69.80;;;;;;4995998;28;20030;-90
2020/12/03 04:56:40;;;;;;;36.10;12.48;;;0.70;69.90;;;;;;4997351;28;20113;-90
2020/12/03 04:59:31;;;;;;;30.75;12.13;;;0.70;70.40;;;;;;4991591;28;20018;-90
2020/12/03 05:02:02;;;;;;;34.97;12.98;;;0.70;69.80;;;;;;4990868;28;20023;-89
2020/12/03 05:04:39;;;;;;;36.10;14.15;;;0.70;69.80;;;;;;4992474;28;20037;-89
2020/12/03 05:07:11;;;;;;;28.15;11.55;;;0.70;69.80;;;;;;4994669;28;20113;-89
2020/12/03 05:09:57;;;;;;;34.80;11.45;;;0.70;69.80;;;;;;5003702;28;20069;-90
2020/12/03 05:12:35;;;;;;;36.35;12.45;;;0.70;70.00;;;;;;4992602;28;20038;-91
2020/12/03 05:15:12;;;;;;;28.52;10.65;;;0.70;69.90;;;;;;4983664;28;20018;-90
2020/12/03 05:18:08;;;;;;;29.50;11.20;;;0.70;69.60;;;;;;4982019;28;20022;-90
2020/12/03 05:20:57;;;;;;;28.52;10.88;;;0.70;69.70;;;;;;4986923;28;20018;-91
2020/12/03 05:23:34;;;;;;;29.35;10.48;;;0.70;69.70;;;;;;4986828;28;20155;-90
2020/12/03 05:26:02;;;;;;;27.75;11.65;;;0.60;69.80;;;;;;4996465;28;20030;-89
2020/12/03 05:28:36;;;;;;;30.20;9.98;;;0.70;69.80;;;;;;4997212;28;20028;-89
2020/12/03 05:31:21;;;;;;;29.27;10.55;;;0.70;69.80;;;;;;5004014;28;20037;-90
2020/12/03 05:33:47;;;;;;;29.35;11.18;;;0.70;69.80;;;;;;4995028;28;20041;-89
2020/12/03 05:36:34;;;;;;;34.63;12.20;;;0.70;69.90;;;;;;4997567;28;20076;-89
2020/12/03 05:39:02;;;;;;;28.00;10.85;;;0.70;69.90;;;;;;4979702;28;20037;-89
2020/12/03 05:41:32;;;;;;;30.13;10.63;;;0.70;70.30;;;;;;4994661;28;20034;-89
2020/12/03 05:43:57;;;;;;;32.63;13.13;;;0.80;70.30;;;;;;4996960;28;20352;-89
2020/12/03 05:46:25;;;;;;;35.67;13.60;;;0.80;70.20;;;;;;4993353;28;20113;-89
2020/12/03 05:49:03;;;;;;;34.20;12.82;;;0.90;70.20;;;;;;5002772;28;20064;-89
2020/12/03 05:51:33;;;;;;;33.38;11.52;;;0.90;70.70;;;;;;5013594;28;20088;-89
2020/12/03 05:54:03;;;;;;;27.60;11.27;;;0.90;70.00;;;;;;4985714;28;20022;-89
2020/12/03 05:56:31;;;;;;;34.13;12.90;;;0.90;70.20;;;;;;4996554;28;20087;-89
2020/12/03 05:59:17;;;;;;;30.02;12.35;;;0.90;70.00;;;;;;4999703;28;20024;-90
2020/12/03 06:02:02;;;;;;;34.33;13.10;;;0.90;70.30;;;;;;5004726;28;20022;-89
2020/12/03 06:04:46;;;;;;;26.98;10.95;;;1.00;70.20;;;;;;4994827;28;20037;-89
2020/12/03 06:07:44;;;;;;;29.17;9.97;;;1.00;70.00;;;;;;4988595;28;20076;-87
2020/12/03 06:10:25;;;;;;;28.17;11.07;;;1.00;70.00;;;;;;4985605;28;20273;-87
2020/12/03 06:13:01;;;;;;;20.70;8.88;;;0.90;69.90;;;;;;5005012;28;20606;-89
2020/12/03 06:15:52;;;;;;;28.65;11.15;;;1.00;70.00;;;;;;4992867;28;20032;-95
2020/12/03 06:18:24;;;;;;;25.75;10.07;;;1.00;70.20;;;;;;4980869;28;20080;-85
2020/12/03 06:21:17;;;;;;;26.45;10.63;;;1.00;70.10;;;;;;4981496;28;20533;-84
2020/12/03 06:24:02;;;;;;;30.13;11.10;;;1.00;70.00;;;;;;4995237;28;20022;-84
2020/12/03 06:26:52;;;;;;;19.13;7.65;;;1.00;70.20;;;;;;4994746;28;20030;-83
2020/12/03 06:29:33;;;;;;;30.08;10.90;;;1.00;70.20;;;;;;4995723;28;20060;-87
2020/12/03 06:32:29;;;;;;;33.00;13.10;;;1.00;70.50;;;;;;4995345;28;20049;-84
2020/12/03 06:35:03;;;;;;;26.90;10.52;;;1.00;70.00;;;;;;4996515;28;20077;-84
2020/12/03 06:37:57;;;;;;;22.25;9.50;;;1.00;70.40;;;;;;4992252;28;20032;-84
2020/12/03 06:40:28;;;;;;;22.02;9.13;;;1.10;70.20;;;;;;4982807;28;20026;-89
2020/12/03 06:43:40;;;;;;;29.73;10.48;;;1.00;70.00;;;;;;4992938;28;20105;-90
2020/12/03 06:46:37;;;;;;;34.78;12.93;;;1.10;70.40;;;;;;4953100;28;20054;-90
2020/12/03 06:49:20;;;;;;;29.42;10.27;;;1.10;70.30;;;;;;4988466;28;20038;-90
2020/12/03 06:51:49;;;;;;;28.40;10.73;;;1.10;69.80;;;;;;4992659;28;20054;-89
2020/12/03 06:54:34;;;;;;;29.77;10.60;;;1.00;69.70;;;;;;4992553;28;20065;-90
2020/12/03 06:57:00;;;;;;;33.17;12.48;;;1.00;69.90;;;;;;4995772;28;20014;-90
2020/12/03 06:59:55;;;;;;;30.75;11.65;;;0.90;70.00;;;;;;4992382;28;20479;-89
2020/12/03 07:03:10;;;;;;;27.77;10.40;;;1.00;70.10;;;;;;4977704;28;20094;-85
2020/12/03 07:17:57;;;;;;;23.90;9.65;;;1.00;70.20;;;;;;5823065;23;20132;-91
2020/12/03 07:21:15;;;;;;;;;;;;;;;;;;;;;
2020/12/03 07:24:19;;;;;;;32.53;11.32;;;1.10;70.10;;;;;;4914769;29;20384;-89
2020/12/03 08:16:52;;;;;;;25.58;9.70;;;1.20;70.40;;;;;;4902122;29;20052;-92
2020/12/03 08:23:13;;;;;;;23.67;8.65;;;1.30;70.30;;;;;;4880019;29;20104;-92
2020/12/03 08:29:40;;;;;;;26.38;9.32;;;1.20;70.10;;;;;;4885456;29;20029;-90
2020/12/03 08:32:26;;;;;;;28.95;10.95;;;1.30;70.40;;;;;;4898936;29;20037;-91
2020/12/03 08:34:57;;;;;;;25.50;10.27;;;1.20;70.20;;;;;;4880105;29;20021;-92
2020/12/03 08:40:37;;;;;;;24.40;9.80;;;1.30;70.30;;;;;;4893913;29;20073;-91
2020/12/03 08:43:12;;;;;;;23.13;9.20;;;1.40;70.40;;;;;;4891377;29;20032;-93
2020/12/03 08:51:58;;;;;;;25.10;9.48;;;1.40;70.60;;;;;;5851911;23;20122;-95
2020/12/03 08:54:30;;;;;;;25.98;10.43;;;1.50;70.60;;;;;;4936198;29;20044;-96
2020/12/03 08:57:13;;;;;;;29.98;11.25;;;1.50;70.30;;;;;;4911323;29;20028;-96
2020/12/03 08:59:53;;;;;;;30.00;11.30;;;1.50;70.40;;;;;;4935315;29;20047;-96
2020/12/03 09:02:30;;;;;;;;;;;;;;;;;;;;;
2020/12/03 09:05:13;;;;;;;27.63;11.75;;;1.60;70.70;;;;;;4926069;29;20028;-93
2020/12/03 10:02:55;;;;;;;29.63;12.30;;;1.90;70.20;;;;;;4917984;29;20056;-94
2020/12/03 10:05:40;;;;;;;29.02;11.05;;;1.80;70.20;;;;;;4910907;29;20059;-95
2020/12/03 10:08:06;;;;;;;25.80;10.20;;;1.80;70.20;;;;;;4908996;29;20016;-95
2020/12/03 10:10:59;;;;;;;24.95;9.10;;;1.90;70.60;;;;;;4905426;29;20040;-94
2020/12/03 10:13:38;;;;;;;30.10;11.52;;;1.90;70.80;;;;;;4910820;29;20117;-95
2020/12/03 10:16:48;;;;;;;29.33;10.18;;;1.90;70.50;;;;;;4898583;29;20027;-94
2020/12/03 10:39:26;;;;;;;;;;;;;;;;;;;;;
2020/12/03 10:42:26;;;;;;;31.90;9.50;;;2.20;70.70;;;;;;4859935;29;20025;-94
2020/12/03 10:45:16;;;;;;;28.73;11.57;;;2.10;70.50;;;;;;4843455;29;20124;-95
2020/12/03 10:47:54;;;;;;;30.00;11.00;;;2.20;70.80;;;;;;4941757;29;20091;-96
2020/12/03 10:51:01;;;;;;;33.05;10.75;;;2.30;70.90;;;;;;4926807;29;20047;-95
2020/12/03 10:53:29;;;;;;;30.30;10.57;;;2.40;71.10;;;;;;4931242;29;20036;-93
2020/12/03 10:56:04;;;;;;;34.60;13.93;;;2.40;70.60;;;;;;4926668;29;20035;-92
2020/12/03 10:59:04;;;;;;;34.40;12.23;;;2.30;70.50;;;;;;4926510;29;20035;-94
2020/12/03 11:01:32;;;;;;;30.25;11.73;;;2.40;71.10;;;;;;4897229;29;20039;-93
2020/12/03 11:04:11;;;;;;;35.50;11.55;;;2.30;70.70;;;;;;4927663;29;20065;-91
2020/12/03 11:07:07;;;;;;;31.00;10.82;;;2.40;70.90;;;;;;4935932;29;20060;-95
2020/12/03 11:09:36;;;;;;;29.23;10.20;;;2.40;70.90;;;;;;4937498;29;20469;-95
2020/12/03 11:12:43;;;;;;;33.63;11.98;;;2.60;70.90;;;;;;4922693;29;20090;-95
2020/12/03 11:15:21;;;;;;;33.83;12.60;;;2.50;70.70;;;;;;4912034;29;20056;-94
2020/12/03 11:18:41;;;;;;;32.85;12.77;;;2.50;70.60;;;;;;4896541;29;20116;-94
2020/12/03 11:21:22;;;;;;;30.65;11.40;;;2.50;70.70;;;;;;4930744;29;20078;-94
2020/12/03 11:24:09;;;;;;;32.00;12.52;;;2.50;71.00;;;;;;4949335;29;20099;-94
2020/12/03 11:27:07;;;;;;;33.92;12.45;;;2.50;70.60;;;;;;4959789;28;20023;-96
2020/12/03 11:30:16;;;;;;;34.25;11.32;;;2.60;70.90;;;;;;4932335;29;20023;-96
2020/12/03 11:32:55;;;;;;;43.42;14.07;;;2.60;71.00;;;;;;4927555;29;20053;-96
2020/12/03 11:35:27;;;;;;;32.13;11.70;;;2.60;70.60;;;;;;4923863;29;20472;-92
2020/12/03 11:37:56;;;;;;;29.80;10.43;;;2.60;70.70;;;;;;4934560;29;20027;-90
2020/12/03 11:48:54;;;;;;;36.45;12.07;;;2.60;71.00;;;;;;4935672;29;20400;-91
2020/12/03 11:51:32;;;;;;;30.33;11.20;;;2.70;70.70;;;;;;4919100;29;20036;-91
2020/12/03 11:54:01;;;;;;;29.73;10.32;;;2.70;70.70;;;;;;4931725;29;20035;-91
2020/12/03 11:56:31;;;;;;;31.15;11.40;;;2.70;71.00;;;;;;4919089;29;20031;-93
2020/12/03 11:59:16;;;;;;;32.50;11.60;;;2.70;71.10;;;;;;4919442;29;20336;-89
2020/12/03 12:02:03;;;;;;;30.10;11.18;;;2.90;71.30;;;;;;4929408;29;20066;-91
2020/12/03 12:12:11;;;;;;;33.63;12.88;;;3.00;70.90;;;;;;4940021;29;20041;-91
2020/12/03 12:14:36;;;;;;;29.75;11.98;;;3.00;71.10;;;;;;4914555;29;20035;-81
2020/12/03 12:17:02;;;;;;;35.53;13.32;;;3.10;71.60;;;;;;4936630;29;20127;-89
2020/12/03 12:19:29;;;;;;;29.33;12.68;;;3.20;71.60;;;;;;4916977;29;20032;-86
2020/12/03 12:21:56;;;;;;;34.13;10.65;;;3.30;71.30;;;;;;4914906;29;20119;-88
2020/12/03 12:24:22;;;;;;;37.13;13.20;;;3.30;71.50;;;;;;4906403;29;20090;-89
2020/12/03 12:26:48;;;;;;;31.10;13.25;;;3.40;71.30;;;;;;4913631;29;20024;-87
2020/12/03 12:29:13;;;;;;;37.22;12.88;;;3.40;70.90;;;;;;4921320;29;20031;-88
2020/12/03 12:31:40;;;;;;;30.33;12.93;;;3.50;71.20;;;;;;4906520;29;20489;-88
2020/12/03 12:34:06;;;;;;;38.40;13.18;;;3.50;71.40;;;;;;4918637;29;20031;-85
2020/12/03 12:36:31;;;;;;;40.80;14.15;;;3.60;71.50;;;;;;4937138;29;20036;-85
2020/12/03 12:38:57;;;;;;;37.17;12.60;;;3.60;71.00;;;;;;4931036;29;20031;-90
2020/12/03 12:41:22;;;;;;;37.47;13.65;;;3.60;70.90;;;;;;4915593;29;20141;-89
2020/12/03 12:43:48;;;;;;;32.40;12.20;;;3.60;71.00;;;;;;4936829;29;20062;-87
2020/12/03 12:46:20;;;;;;;32.80;12.65;;;3.60;70.90;;;;;;4937614;29;20159;-89
2020/12/03 12:48:46;;;;;;;35.40;11.60;;;3.60;70.90;;;;;;4954438;29;20489;-93
2020/12/03 12:51:12;;;;;;;33.08;11.75;;;3.60;71.00;;;;;;4910105;29;20128;-89
2020/12/03 12:53:37;;;;;;;25.38;9.43;;;3.60;70.70;;;;;;4914941;29;20030;-86
2020/12/03 12:56:03;;;;;;;34.72;12.13;;;3.50;70.50;;;;;;4920688;29;20480;-91
2020/12/03 12:58:28;;;;;;;33.13;13.73;;;3.60;71.00;;;;;;4920677;29;20031;-88
2020/12/03 13:00:54;;;;;;;31.08;12.95;;;3.50;70.60;;;;;;4895947;29;20038;-89
2020/12/03 13:03:20;;;;;;;32.80;12.30;;;3.50;70.70;;;;;;4932408;29;20027;-91
2020/12/03 13:05:45;;;;;;;36.50;13.48;;;3.60;71.10;;;;;;4921156;29;20433;-92
2020/12/03 13:08:11;;;;;;;34.08;12.13;;;3.60;71.10;;;;;;4918617;29;20028;-91
2020/12/03 13:10:37;;;;;;;32.70;13.27;;;3.60;71.00;;;;;;4928107;29;20028;-89
2020/12/03 13:13:03;;;;;;;31.13;12.57;;;3.60;71.00;;;;;;4918551;29;20473;-90
2020/12/03 13:15:29;;;;;;;31.25;11.05;;;3.70;71.10;;;;;;4932783;29;20031;-93
2020/12/03 13:17:54;;;;;;;29.95;11.48;;;3.70;71.10;;;;;;4920651;29;20059;-92
2020/12/03 13:20:20;;;;;;;34.47;14.57;;;3.70;70.90;;;;;;4920212;29;20039;-90
2020/12/03 13:22:46;;;;;;;30.45;13.23;;;3.80;71.20;;;;;;4919423;29;20127;-92
2020/12/03 13:25:11;;;;;;;31.35;12.68;;;3.80;71.40;;;;;;4921284;29;20488;-91
2020/12/03 13:27:37;;;;;;;30.02;12.50;;;3.90;71.60;;;;;;4913695;29;20038;-88
2020/12/03 13:30:04;;;;;;;28.77;12.48;;;3.90;71.40;;;;;;4912969;29;20441;-90
2020/12/03 13:32:29;;;;;;;30.17;11.82;;;4.00;71.00;;;;;;4931750;29;20069;-89
2020/12/03 13:34:55;;;;;;;37.92;14.48;;;3.90;70.80;;;;;;4911100;29;20031;-91
2020/12/03 13:37:20;;;;;;;28.50;12.43;;;4.00;71.40;;;;;;4906584;29;20059;-92
2020/12/03 13:39:46;;;;;;;31.40;14.07;;;3.90;71.20;;;;;;4932962;29;20487;-88
2020/12/03 13:42:23;;;;;;;31.30;12.55;;;4.10;71.20;;;;;;4919511;29;20102;-85
2020/12/03 13:44:49;;;;;;;30.75;11.15;;;4.10;71.50;;;;;;4913920;29;20408;-86
2020/12/03 13:47:15;;;;;;;33.63;12.95;;;4.30;72.10;;;;;;4912427;29;20024;-92
2020/12/03 13:49:44;;;;;;;27.92;10.77;;;4.60;73.90;;;;;;4903955;29;20028;-86
2020/12/03 13:52:11;;;;;;;36.72;13.68;;;5.10;73.90;;;;;;4901887;29;20043;-86
2020/12/03 13:54:37;;;;;;;32.38;12.60;;;5.50;73.60;;;;;;4910820;29;20067;-90
2020/12/03 13:57:02;;;;;;;34.65;13.18;;;5.60;72.20;;;;;;4907376;29;20484;-90
2020/12/03 13:59:28;;;;;;;30.45;11.98;;;5.80;72.30;;;;;;4918068;29;20499;-90
2020/12/03 14:01:54;;;;;;;32.90;13.07;;;5.90;72.30;;;;;;4904877;29;20032;-90
2020/12/03 14:04:19;;;;;;;30.40;11.93;;;5.90;71.90;;;;;;4904462;29;20221;-92
2020/12/03 14:06:45;;;;;;;35.72;14.05;;;6.00;71.50;;;;;;4911903;29;20031;-91
2020/12/03 14:09:11;;;;;;;35.40;14.35;;;6.10;72.50;;;;;;4892681;29;20515;-92
2020/12/03 14:11:39;;;;;;;33.13;13.75;;;6.10;71.00;;;;;;4898874;29;20397;-90
2020/12/03 14:14:05;;;;;;;29.67;12.75;;;6.00;70.70;;;;;;4889523;29;20024;-90
2020/12/03 14:16:30;;;;;;;33.83;14.18;;;5.80;70.10;;;;;;4892432;29;20167;-89
2020/12/03 14:18:56;;;;;;;30.48;12.98;;;5.60;70.30;;;;;;4885836;29;20056;-91
2020/12/03 14:21:22;;;;;;;28.70;10.57;;;5.50;70.40;;;;;;4885970;29;20034;-88
2020/12/03 14:23:47;;;;;;;33.75;13.63;;;5.40;70.20;;;;;;4892403;29;20539;-91
2020/12/03 14:26:13;;;;;;;36.63;13.98;;;5.00;69.70;;;;;;4892578;29;20028;-90
2020/12/03 14:28:39;;;;;;;33.47;13.05;;;4.80;69.40;;;;;;4900773;29;20107;-90
2020/12/03 14:31:04;;;;;;;35.28;18.73;;;4.60;69.50;;;;;;4891910;29;20036;-90
2020/12/03 14:33:30;;;;;;;84.00;42.30;;;4.60;70.00;;;;;;4885447;29;20043;-91
2020/12/03 14:35:55;;;;;;;40.90;20.40;;;4.40;70.10;;;;;;4891630;29;20039;-90
2020/12/03 14:38:21;;;;;;;33.95;14.82;;;4.30;70.00;;;;;;4885306;29;20060;-88
2020/12/03 14:40:47;;;;;;;36.28;12.43;;;4.20;70.20;;;;;;4915434;29;20496;-87
2020/12/03 14:43:13;;;;;;;29.90;12.75;;;4.10;70.30;;;;;;4883274;29;20052;-87
2020/12/03 14:45:38;;;;;;;34.22;12.65;;;4.10;70.50;;;;;;4894715;29;20401;-86
2020/12/03 14:48:04;;;;;;;29.65;12.27;;;4.00;70.50;;;;;;4891037;29;20062;-87
2020/12/03 14:50:33;;;;;;;32.03;12.75;;;4.00;70.50;;;;;;4891248;29;20513;-91
2020/12/03 14:52:59;;;;;;;33.67;14.18;;;3.80;70.20;;;;;;4901242;29;20492;-89
2020/12/03 14:55:28;;;;;;;38.28;13.00;;;3.80;70.40;;;;;;4907373;29;20047;-90
2020/12/03 14:57:56;;;;;;;39.97;15.48;;;3.70;70.30;;;;;;4885735;29;20118;-91
2020/12/03 15:00:21;;;;;;;38.28;16.20;;;3.70;70.20;;;;;;4882854;29;20481;-92
2020/12/03 15:02:48;;;;;;;33.00;13.68;;;3.60;70.20;;;;;;4893142;29;20040;-89
2020/12/03 15:05:15;;;;;;;39.95;18.23;;;3.50;70.20;;;;;;4899087;29;20028;-89
2020/12/03 15:07:40;;;;;;;38.25;16.27;;;3.40;70.30;;;;;;4888924;29;20043;-89
2020/12/03 15:10:10;;;;;;;35.97;14.27;;;3.40;70.10;;;;;;4877469;29;20028;-88
2020/12/03 15:12:36;;;;;;;33.00;13.13;;;3.40;70.30;;;;;;4900207;29;20483;-84
2020/12/03 15:15:03;;;;;;;39.03;14.88;;;3.30;70.20;;;;;;4902768;29;20052;-87
2020/12/03 15:17:29;;;;;;;35.40;15.98;;;3.30;70.50;;;;;;4886301;29;20040;-88
2020/12/03 15:19:54;;;;;;;34.05;12.80;;;3.20;70.40;;;;;;4889133;29;20040;-88
2020/12/03 15:22:20;;;;;;;32.35;13.35;;;3.20;70.30;;;;;;4891830;29;20028;-89
2020/12/03 15:24:45;;;;;;;28.05;12.18;;;3.20;70.40;;;;;;4900845;29;20059;-87
2020/12/03 15:27:12;;;;;;;31.98;12.73;;;3.20;70.80;;;;;;4884553;29;20524;-88
2020/12/03 15:29:38;;;;;;;36.42;14.20;;;3.20;70.60;;;;;;4880211;29;20485;-87
2020/12/03 15:32:03;;;;;;;26.55;11.50;;;3.20;70.30;;;;;;4884660;29;20047;-87
2020/12/03 15:34:29;;;;;;;32.88;13.25;;;3.20;70.20;;;;;;4879969;29;20059;-85
2020/12/03 15:36:56;;;;;;;30.35;10.90;;;3.10;70.20;;;;;;4917313;29;20036;-84
2020/12/03 15:39:24;;;;;;;25.58;11.38;;;3.10;70.40;;;;;;4915268;29;20381;-84
2020/12/03 15:42:08;;;;;;;32.42;14.88;;;3.10;70.40;;;;;;4899550;29;20366;-85
2020/12/03 15:44:38;;;;;;;32.83;12.68;;;3.00;70.30;;;;;;4918661;29;20071;-86
2020/12/03 15:47:05;;;;;;;28.92;10.45;;;3.00;70.40;;;;;;4911169;29;20028;-86
2020/12/03 15:49:32;;;;;;;28.35;12.10;;;3.00;70.60;;;;;;4908163;29;20032;-85
2020/12/03 15:51:59;;;;;;;32.13;11.32;;;3.00;70.50;;;;;;4903707;29;20070;-88
2020/12/03 15:54:25;;;;;;;35.03;14.63;;;3.00;70.10;;;;;;4899446;29;20123;-89